»·PEaware :: N4D KRNM-KPSP

N4D :: KRNM-KPSP

FLIGHT INFORMATION

Flight Status: Arrived
Operator: Privately registered:
United States
More flights under this callsign
Pilot: Alec D. (17934)
Aircraft: BEECH AIRCRAFT A90-E90 KING AIR
(BE9L)
More flights by this aircraft type
Origin: KRNM Ramona
United States
Destination: KPSP Palm Springs Intl
United States
More flights between these airports :: More routes between these airports
Route: ROBNN V208 TRM
File this flight plan on PilotEdge
Remarks:
Altitude:
(Current/Filed)
9,000ft
Speed:
(Current/Filed)
230kts
Departed: 01-Aug-18 06:21 PM
Arrived: 01-Aug-18 06:52 PM
Distance/Time
Traveled:
51nm/0:30
Distance/Time
To Go:
Arrived

Flight Plot

Page will automatically refresh every two minutes.


Map Options




Map Legend


Flown Route
Filed Route
Departure Airport
Arrival Airport
Navaid (VOR, NDB)
Fix

Horizontal Profiles

Position Reports

Time Latitude Longitude Heading Altitude Ground
Speed
01-Aug-18 18:04 33.040051 -116.910619 9 1398ft 0kts
01-Aug-18 18:05 33.040051 -116.910619 9 1398ft 0kts
01-Aug-18 18:06 33.040053 -116.910619 9 1398ft 0kts
01-Aug-18 18:07 33.040056 -116.910618 9 1398ft 0kts
01-Aug-18 18:08 33.040060 -116.910617 9 1398ft 0kts
01-Aug-18 18:09 33.040063 -116.910616 9 1398ft 0kts
01-Aug-18 18:10 33.040066 -116.910616 9 1398ft 0kts
01-Aug-18 18:11 33.040069 -116.910615 9 1398ft 0kts
01-Aug-18 18:12 33.040072 -116.910615 9 1398ft 0kts
01-Aug-18 18:13 33.040075 -116.910614 9 1398ft 0kts
01-Aug-18 18:14 33.040078 -116.910613 9 1398ft 0kts
01-Aug-18 18:15 33.040082 -116.910613 9 1398ft 0kts
01-Aug-18 18:16 33.040085 -116.910612 9 1398ft 0kts
01-Aug-18 18:17 33.040088 -116.910611 9 1398ft 0kts
01-Aug-18 18:18 33.039586 -116.910261 173 1398ft 16kts
01-Aug-18 18:19 33.038594 -116.907409 124 1398ft 0kts
01-Aug-18 18:20 33.038592 -116.907405 124 1398ft 0kts
01-Aug-18 18:21 33.038020 -116.907725 278 1398ft 0kts
01-Aug-18 18:22 33.040750 -116.926023 279 1601ft 110kts
01-Aug-18 18:23 33.048388 -116.968279 278 2778ft 142kts
01-Aug-18 18:24 33.056534 -117.017527 279 4106ft 158kts
01-Aug-18 18:25 33.062766 -117.048471 298 4844ft 164kts
01-Aug-18 18:26 33.096684 -117.078804 327 6076ft 168kts
01-Aug-18 18:27 33.139071 -117.100325 343 7564ft 166kts
01-Aug-18 18:28 33.185301 -117.108762 355 8819ft 177kts
01-Aug-18 18:29 33.222068 -117.077436 96 8993ft 212kts
01-Aug-18 18:30 33.206628 -117.006316 103 8967ft 227kts
01-Aug-18 18:31 33.194065 -116.931364 101 8976ft 231kts
01-Aug-18 18:32 33.181721 -116.855476 101 8983ft 233kts
01-Aug-18 18:33 33.169368 -116.779926 101 8987ft 231kts
01-Aug-18 18:34 33.157003 -116.704626 101 8983ft 230kts
01-Aug-18 18:35 33.144690 -116.629915 101 9196ft 225kts
01-Aug-18 18:36 33.162845 -116.562034 36 9229ft 232kts
01-Aug-18 18:37 33.215134 -116.516678 36 9204ft 233kts
01-Aug-18 18:38 33.267775 -116.470863 35 9155ft 235kts
01-Aug-18 18:39 33.321462 -116.424100 35 9090ft 238kts
01-Aug-18 18:40 33.375367 -116.377233 35 9067ft 239kts
01-Aug-18 18:41 33.429483 -116.329880 35 8985ft 242kts
01-Aug-18 18:42 33.483754 -116.282304 35 8952ft 240kts
01-Aug-18 18:43 33.534965 -116.235730 37 8933ft 217kts
01-Aug-18 18:44 33.582811 -116.193817 34 8716ft 217kts
01-Aug-18 18:45 33.641454 -116.186713 322 6853ft 230kts
01-Aug-18 18:46 33.679659 -116.247028 301 4988ft 225kts
01-Aug-18 18:47 33.715849 -116.309004 302 3184ft 224kts
01-Aug-18 18:48 33.746209 -116.360911 300 2947ft 144kts
01-Aug-18 18:49 33.768188 -116.399090 298 2995ft 144kts
01-Aug-18 18:50 33.784830 -116.439210 290 1936ft 115kts
01-Aug-18 18:51 33.795716 -116.473632 299 1176ft 110kts
01-Aug-18 18:52 33.818491 -116.497688 322 574ft 107kts
01-Aug-18 18:53 33.827786 -116.507032 187 482ft 0kts
01-Aug-18 18:54 33.825869 -116.507237 214 482ft 19kts
01-Aug-18 18:55 33.825879 -116.510115 268 482ft 0kts
01-Aug-18 18:56 33.825879 -116.510117 268 482ft 0kts
01-Aug-18 18:57 33.825879 -116.510117 268 482ft 0kts
01-Aug-18 18:58 33.825879 -116.510117 268 482ft 0kts
01-Aug-18 18:59 33.825879 -116.510117 268 482ft 0kts
01-Aug-18 19:00 33.825879 -116.510117 268 482ft 0kts
01-Aug-18 19:01 33.825879 -116.510117 268 482ft 0kts
01-Aug-18 19:02 33.825879 -116.510117 268 482ft 0kts
01-Aug-18 19:03 33.825879 -116.510117 268 482ft 0kts

Navigation Log

Ident Type
1. KRNM Airport
2. ROBNN Fix
3. BONDO Fix
4. JLI Navaid
5. WARNE Fix
6. TRM Navaid
7. KPSP Airport